Time;durP1;ratioP1;P1;durP2;ratioP2;P2;SDS_P1;SDS_P2;PMS_P1;PMS_P2;Temp;Humidity;BMP_temperature;BMP_pressure;BME280_temperature;BME280_humidity;BME280_pressure;Samples;Min_cycle;Max_cycle;Signal;HPM_P1;HPM_P2
2021/11/07 00:02:08;;;;;;;;;48.00;38.25;;;;;16.34;81.74;101816.84;146609;569;45051;-70
2021/11/07 00:04:45;;;;;;;;;44.75;36.50;;;;;16.36;81.08;101815.22;146605;666;46016;-70
2021/11/07 00:07:23;;;;;;;;;51.25;40.50;;;;;16.40;80.82;101820.66;146609;570;45020;-71
2021/11/07 00:10:06;;;;;;;;;50.00;39.50;;;;;16.43;81.63;101809.41;146607;569;46016;-70
2021/11/07 00:12:43;;;;;;;;;47.75;38.50;;;;;16.48;80.91;101810.53;146610;569;46012;-73
2021/11/07 00:15:18;;;;;;;;;50.75;41.00;;;;;16.51;80.98;101818.53;146607;569;46012;-70
2021/11/07 00:17:55;;;;;;;;;52.00;38.75;;;;;16.55;81.32;101822.16;146609;615;45048;-69
2021/11/07 00:20:33;;;;;;;;;46.50;37.75;;;;;16.58;80.93;101827.53;146608;625;46013;-70
2021/11/07 00:29:08;;;;;;;;;49.75;41.50;;;;;16.56;81.55;101818.72;146609;648;45020;-70
2021/11/07 00:31:54;;;;;;;;;53.00;42.25;;;;;16.55;81.16;101820.44;146606;645;46016;-70
2021/11/07 00:35:14;;;;;;;;;53.75;43.50;;;;;16.57;80.82;101829.28;146609;588;45021;-70
2021/11/07 00:37:39;;;;;;;;;58.75;45.75;;;;;16.59;81.11;101821.47;146606;610;45917;-69
2021/11/07 00:43:17;;;;;;;;;57.75;45.25;;;;;16.61;79.95;101823.31;146605;581;46017;-71
2021/11/07 00:46:09;;;;;;;;;59.25;47.25;;;;;16.62;79.74;101830.34;146607;594;45020;-71
2021/11/07 00:48:47;;;;;;;;;58.00;45.00;;;;;16.62;79.88;101822.50;146605;578;46915;-72
2021/11/07 00:57:26;;;;;;;;;53.00;43.25;;;;;16.62;79.22;101808.50;146611;584;45021;-71
2021/11/07 01:00:04;;;;;;;;;53.75;42.25;;;;;16.61;79.12;101806.72;146606;593;45020;-71
2021/11/07 01:02:41;;;;;;;;;56.50;43.75;;;;;16.59;78.84;101806.66;146609;579;45020;-71
2021/11/07 01:05:22;;;;;;;;;57.25;44.75;;;;;16.61;79.00;101807.63;146607;594;45021;-72
2021/11/07 01:07:57;;;;;;;;;55.25;43.00;;;;;16.61;79.74;101810.25;146609;573;45020;-72
2021/11/07 01:10:31;;;;;;;;;57.00;44.75;;;;;16.59;79.34;101809.25;146606;737;45020;-72
2021/11/07 01:13:08;;;;;;;;;53.50;42.50;;;;;16.59;79.32;101814.50;146609;564;45910;-70
2021/11/07 01:15:42;;;;;;;;;50.50;40.50;;;;;16.57;79.22;101808.31;146608;572;45016;-70
2021/11/07 01:18:16;;;;;;;;;49.50;38.00;;;;;16.56;79.18;101801.28;146609;556;45051;-72
2021/11/07 01:20:50;;;;;;;;;51.50;41.00;;;;;16.54;79.73;101808.19;146606;572;46916;-72
2021/11/07 01:23:29;;;;;;;;;55.25;42.75;;;;;16.48;80.14;101804.38;146609;624;46020;-73
2021/11/07 01:26:10;;;;;;;;;49.75;41.25;;;;;16.42;80.17;101796.25;146604;569;46016;-73
2021/11/07 01:28:48;;;;;;;;;50.25;39.75;;;;;16.36;79.91;101803.03;146608;581;46020;-72
2021/11/07 01:31:22;;;;;;;;;55.50;45.00;;;;;16.32;81.14;101795.87;146606;593;45016;-72
2021/11/07 01:33:59;;;;;;;;;57.50;46.50;;;;;16.31;80.78;101809.75;146608;587;46021;-74
2021/11/07 01:45:23;;;;;;;;;56.00;43.50;;;;;16.17;81.78;101808.25;146607;581;46010;-75
2021/11/07 01:48:19;;;;;;;;;54.75;43.00;;;;;16.14;81.57;101803.78;146606;570;46017;-74
2021/11/07 01:50:56;;;;;;;;;53.00;42.00;;;;;16.13;81.67;101801.06;146609;598;46020;-73
2021/11/07 01:53:38;;;;;;;;;54.50;42.75;;;;;16.12;81.85;101802.78;146606;624;45020;-72
2021/11/07 01:56:15;;;;;;;;;46.50;38.25;;;;;16.11;81.51;101795.78;146608;572;46020;-72
2021/11/07 01:58:49;;;;;;;;;51.25;43.00;;;;;16.12;82.25;101800.19;146606;569;45020;-72
2021/11/07 02:01:29;;;;;;;;;50.50;39.50;;;;;16.11;82.49;101801.00;146608;564;46020;-71
2021/11/07 02:04:03;;;;;;;;;46.25;38.25;;;;;16.08;81.97;101806.09;146605;570;46017;-72
2021/11/07 02:06:37;;;;;;;;;44.25;37.75;;;;;16.06;82.35;101802.50;146609;564;45020;-71
2021/11/07 02:09:11;;;;;;;;;49.00;39.75;;;;;16.04;81.69;101806.75;146606;598;46016;-71
2021/11/07 02:11:45;;;;;;;;;45.25;36.00;;;;;16.02;81.81;101802.31;146611;594;45021;-72
2021/11/07 02:14:19;;;;;;;;;47.25;35.25;;;;;16.03;82.00;101796.25;146607;602;45915;-72
2021/11/07 02:16:53;;;;;;;;;45.75;35.50;;;;;16.04;82.57;101793.69;146611;621;45020;-72
2021/11/07 02:19:27;;;;;;;;;45.25;35.75;;;;;16.05;82.61;101792.87;146609;582;45016;-72
2021/11/07 02:22:02;;;;;;;;;43.75;35.50;;;;;16.04;81.78;101787.56;146611;584;45020;-71
2021/11/07 02:24:39;;;;;;;;;48.00;37.75;;;;;16.06;82.37;101788.53;146608;574;45016;-71
2021/11/07 02:27:13;;;;;;;;;41.75;34.75;;;;;16.09;81.43;101791.28;146610;624;46020;-71
2021/11/07 02:29:47;;;;;;;;;48.25;37.00;;;;;16.11;81.94;101785.31;146608;594;45016;-70
2021/11/07 02:32:21;;;;;;;;;51.25;38.00;;;;;16.13;82.12;101790.59;146611;595;45021;-71
2021/11/07 02:34:56;;;;;;;;;44.50;35.50;;;;;16.15;81.91;101792.47;146606;606;47021;-73
2021/11/07 02:37:30;;;;;;;;;49.50;40.75;;;;;16.17;81.35;101800.41;146611;569;46012;-72
2021/11/07 02:40:07;;;;;;;;;50.75;41.00;;;;;16.22;82.03;101784.91;146610;617;45020;-71
2021/11/07 02:42:43;;;;;;;;;43.50;37.75;;;;;16.22;81.24;101788.41;146610;570;45020;-72
2021/11/07 02:45:20;;;;;;;;;48.00;38.50;;;;;16.18;81.55;101786.47;146606;573;46016;-71
2021/11/07 02:47:55;;;;;;;;;47.00;37.50;;;;;16.11;81.69;101789.66;146611;627;45021;-71
2021/11/07 02:50:29;;;;;;;;;47.50;37.25;;;;;16.04;82.02;101782.34;146610;610;45016;-70
2021/11/07 02:53:03;;;;;;;;;45.00;35.00;;;;;15.97;81.56;101770.69;146610;575;45020;-71
2021/11/07 02:55:37;;;;;;;;;51.75;41.25;;;;;15.95;82.00;101777.59;146608;692;45017;-71
2021/11/07 02:58:11;;;;;;;;;48.25;38.50;;;;;15.94;81.95;101781.00;146611;625;45012;-72
2021/11/07 03:00:45;;;;;;;;;43.00;35.75;;;;;15.93;81.64;101774.00;146609;576;45016;-69
2021/11/07 03:03:19;;;;;;;;;43.00;35.50;;;;;15.95;81.76;101772.37;146609;611;45050;-69
2021/11/07 03:05:53;;;;;;;;;45.25;38.50;;;;;15.99;81.68;101768.16;146610;625;45016;-68
2021/11/07 03:08:27;;;;;;;;;48.00;38.00;;;;;16.00;82.82;101767.34;146611;582;45020;-69
2021/11/07 03:11:03;;;;;;;;;49.50;38.25;;;;;15.98;82.59;101767.28;146606;583;46019;-70
2021/11/07 03:13:37;;;;;;;;;49.50;38.75;;;;;15.91;81.88;101767.78;146610;608;46020;-71
2021/11/07 03:16:14;;;;;;;;;53.00;39.50;;;;;15.86;81.52;101767.59;146605;566;46016;-70
2021/11/07 03:18:48;;;;;;;;;46.75;37.00;;;;;15.85;82.02;101773.63;146612;605;45021;-70
2021/11/07 03:21:23;;;;;;;;;45.75;34.50;;;;;15.81;82.26;101770.81;146607;571;46915;-75
2021/11/07 03:23:58;;;;;;;;;48.50;40.00;;;;;15.78;81.82;101776.78;146612;575;45019;-75
2021/11/07 03:26:34;;;;;;;;;41.75;34.50;;;;;15.78;81.82;101782.03;146609;573;46016;-74
2021/11/07 03:29:10;;;;;;;;;47.75;39.25;;;;;15.75;81.86;101781.00;146611;599;45020;-74
2021/11/07 03:31:52;;;;;;;;;49.25;39.00;;;;;15.71;82.11;101787.81;146607;597;45018;-73
2021/11/07 03:34:33;;;;;;;;;45.75;36.25;;;;;15.67;82.02;101785.87;146609;564;46020;-76
2021/11/07 03:37:11;;;;;;;;;48.00;36.25;;;;;15.61;82.52;101785.56;146607;572;46018;-71
2021/11/07 03:39:45;;;;;;;;;45.00;35.75;;;;;15.54;83.20;101789.56;146611;644;45021;-73
2021/11/07 03:42:20;;;;;;;;;47.00;35.75;;;;;15.48;84.46;101786.66;146605;693;46016;-75
2021/11/07 03:44:54;;;;;;;;;49.75;40.25;;;;;15.41;85.82;101789.78;146611;665;45020;-74
2021/11/07 03:47:28;;;;;;;;;45.50;36.75;;;;;15.38;85.35;101782.69;146605;652;46016;-71
2021/11/07 03:50:04;;;;;;;;;49.00;39.75;;;;;15.35;85.73;101786.88;146609;607;46020;-69
2021/11/07 03:52:38;;;;;;;;;46.00;36.00;;;;;15.36;85.08;101796.53;146609;631;45016;-70
2021/11/07 03:55:13;;;;;;;;;51.50;38.50;;;;;14.36;84.83;101623.53;146609;599;46021;-78
2021/11/07 03:57:46;;;;;;;;;46.25;37.00;;;;;15.40;84.01;101781.06;146605;583;46016;-79
2021/11/07 04:00:24;;;;;;;;;48.75;37.75;;;;;15.42;83.86;101781.12;146611;590;45012;-78
2021/11/07 04:02:58;;;;;;;;;44.00;35.00;;;;;15.46;83.16;101785.69;146604;584;46017;-78
2021/11/07 04:05:37;;;;;;;;;44.75;37.25;;;;;15.46;83.68;101790.94;146609;738;46020;-72
2021/11/07 04:08:11;;;;;;;;;49.50;39.25;;;;;15.45;83.43;101778.66;146608;641;45016;-76
2021/11/07 04:10:45;;;;;;;;;50.00;38.50;;;;;15.44;83.50;101784.72;146609;618;46012;-75
2021/11/07 04:13:19;;;;;;;;;49.75;38.25;;;;;15.42;83.75;101788.97;146607;588;45018;-74
2021/11/07 04:15:53;;;;;;;;;47.25;38.75;;;;;15.41;84.33;101798.53;146610;589;45013;-73
2021/11/07 04:18:26;;;;;;;;;47.50;37.00;;;;;15.38;84.04;101795.75;146607;584;46012;-74
2021/11/07 04:21:00;;;;;;;;;49.50;38.25;;;;;15.38;83.80;101801.00;146610;663;45020;-73
2021/11/07 04:23:35;;;;;;;;;57.75;44.50;;;;;15.38;85.39;101798.38;146606;576;46012;-73
2021/11/07 04:26:09;;;;;;;;;53.00;42.25;;;;;15.41;85.08;101802.87;146608;585;46012;-72
2021/11/07 04:28:43;;;;;;;;;56.25;42.00;;;;;15.44;84.62;101806.53;146607;692;45020;-71
2021/11/07 04:31:17;;;;;;;;;51.25;41.00;;;;;15.49;83.80;101809.37;146608;610;46020;-71
2021/11/07 04:33:51;;;;;;;;;53.00;41.00;;;;;15.53;83.65;101808.69;146608;574;45028;-72
2021/11/07 04:36:25;;;;;;;;;59.50;46.00;;;;;15.55;83.27;101804.44;146606;564;46909;-76
2021/11/07 04:38:59;;;;;;;;;51.50;42.00;;;;;15.60;83.41;101802.03;146608;706;46020;-73
2021/11/07 04:41:32;;;;;;;;;58.75;45.00;;;;;15.59;83.74;101795.91;146607;607;46020;-76
2021/11/07 04:44:06;;;;;;;;;58.25;43.25;;;;;15.58;83.17;101803.69;146604;563;46016;-71
2021/11/07 04:46:41;;;;;;;;;58.75;47.25;;;;;15.56;83.66;101806.22;146607;588;47021;-74
2021/11/07 04:49:14;;;;;;;;;63.75;48.25;;;;;15.56;83.31;101805.34;146607;631;45016;-73
2021/11/07 04:51:48;;;;;;;;;66.75;49.75;;;;;14.50;83.52;101617.31;146612;578;45024;-77
2021/11/07 04:54:22;;;;;;;;;65.00;47.75;;;;;15.64;83.41;101817.97;146608;597;46016;-78
2021/11/07 04:56:56;;;;;;;;;62.75;46.75;;;;;15.67;83.31;101820.75;146609;570;45020;-74
2021/11/07 04:59:31;;;;;;;;;58.00;45.25;;;;;15.68;83.32;101819.91;146609;595;45020;-70
2021/11/07 05:02:05;;;;;;;;;56.00;43.75;;;;;15.70;83.09;101825.25;146609;622;46021;-70
2021/11/07 05:04:39;;;;;;;;;55.50;44.25;;;;;15.63;83.18;101826.59;146607;650;45038;-70
2021/11/07 05:07:13;;;;;;;;;63.00;48.00;;;;;15.59;83.54;101824.66;146607;564;46013;-71
2021/11/07 05:09:47;;;;;;;;;67.00;48.50;;;;;15.51;83.60;101820.78;146606;584;45042;-71
2021/11/07 05:12:21;;;;;;;;;62.00;46.25;;;;;15.47;83.70;101824.06;146609;569;46010;-70
2021/11/07 05:14:55;;;;;;;;;59.50;46.25;;;;;15.45;83.71;101820.47;146605;634;46017;-71
2021/11/07 05:17:29;;;;;;;;;63.00;47.00;;;;;15.43;83.69;101816.91;146610;668;45021;-76
2021/11/07 05:20:03;;;;;;;;;63.25;47.25;;;;;15.50;83.80;101823.34;146606;627;46016;-76
2021/11/07 05:22:37;;;;;;;;;61.50;45.75;;;;;15.53;83.74;101819.16;146610;586;46022;-76
2021/11/07 05:25:13;;;;;;;;;61.00;46.00;;;;;15.57;83.68;101817.56;146605;624;45021;-74
2021/11/07 05:27:47;;;;;;;;;62.25;46.00;;;;;15.64;83.33;101830.13;146610;563;45020;-71
2021/11/07 05:30:22;;;;;;;;;61.25;45.25;;;;;15.68;83.41;101821.66;146605;581;47020;-71
2021/11/07 05:32:56;;;;;;;;;63.50;47.50;;;;;15.74;82.89;101823.66;146608;574;45020;-71
2021/11/07 05:35:29;;;;;;;;;61.25;47.25;;;;;15.80;82.77;101835.31;146606;589;46016;-71
2021/11/07 05:38:04;;;;;;;;;63.50;47.50;;;;;15.85;82.69;101832.91;146609;601;45021;-68
2021/11/07 05:40:38;;;;;;;;;65.50;50.00;;;;;15.89;82.92;101833.13;146606;679;45021;-69
2021/11/07 05:43:12;;;;;;;;;63.75;47.25;;;;;15.95;82.64;101843.00;146609;575;45020;-70
2021/11/07 05:45:46;;;;;;;;;65.00;49.50;;;;;15.98;82.90;101840.53;146603;564;47916;-77
2021/11/07 05:48:21;;;;;;;;;66.25;49.25;;;;;16.04;82.19;101845.12;146609;606;46021;-79
2021/11/07 05:50:57;;;;;;;;;66.75;49.00;;;;;16.07;83.00;101840.03;146607;630;46012;-80
2021/11/07 05:53:31;;;;;;;;;66.00;49.75;;;;;16.10;82.58;101842.78;146610;607;45021;-71
2021/11/07 05:56:05;;;;;;;;;59.25;46.75;;;;;14.73;82.83;101601.06;146607;569;46021;-73
2021/11/07 05:58:39;;;;;;;;;68.00;52.50;;;;;16.15;83.52;101846.53;146609;633;45012;-72
2021/11/07 06:01:12;;;;;;;;;75.75;57.75;;;;;16.21;83.10;101838.06;146607;594;46016;-72
2021/11/07 06:03:46;;;;;;;;;73.00;56.75;;;;;16.32;83.27;101842.06;146610;582;45020;-72
2021/11/07 06:06:20;;;;;;;;;67.50;53.00;;;;;16.47;82.83;101847.09;146603;700;46016;-71
2021/11/07 06:08:54;;;;;;;;;69.00;51.75;;;;;16.59;82.58;101842.41;146612;655;45024;-72
2021/11/07 06:11:28;;;;;;;;;68.00;53.25;;;;;16.77;82.06;101852.84;146608;648;46011;-72
2021/11/07 06:14:02;;;;;;;;;66.25;51.25;;;;;17.00;81.62;101859.06;146609;601;45021;-72
2021/11/07 06:16:36;;;;;;;;;67.50;51.25;;;;;17.24;81.11;101860.13;146610;565;45017;-71
2021/11/07 06:19:11;;;;;;;;;66.00;50.75;;;;;17.48;80.41;101868.13;146610;610;45051;-72
2021/11/07 06:21:46;;;;;;;;;67.50;51.25;;;;;17.68;79.63;101870.66;146606;616;45020;-71
2021/11/07 06:24:25;;;;;;;;;65.00;49.00;;;;;17.85;78.67;101871.34;146610;638;45020;-76
2021/11/07 06:27:01;;;;;;;;;61.00;46.75;;;;;18.00;78.02;101871.97;146607;672;45036;-73
2021/11/07 06:29:36;;;;;;;;;59.75;46.25;;;;;18.07;77.50;101878.34;146610;603;46012;-73
2021/11/07 06:32:13;;;;;;;;;61.50;45.75;;;;;18.05;76.97;101875.69;146607;601;46016;-72
2021/11/07 06:34:47;;;;;;;;;61.50;44.50;;;;;18.02;77.03;101867.69;146610;588;45020;-73
2021/11/07 06:37:21;;;;;;;;;57.50;43.75;;;;;17.97;77.05;101869.22;146605;620;46017;-73
2021/11/07 06:39:55;;;;;;;;;56.25;42.75;;;;;17.91;77.17;101867.28;146609;605;45020;-73
2021/11/07 06:42:29;;;;;;;;;56.25;40.75;;;;;17.87;77.40;101874.94;146607;598;45033;-72
2021/11/07 06:45:03;;;;;;;;;54.25;42.00;;;;;17.84;77.76;101870.47;146610;623;45032;-75
2021/11/07 06:47:37;;;;;;;;;54.75;42.25;;;;;17.78;77.89;101870.22;146604;599;46016;-72
2021/11/07 06:50:13;;;;;;;;;55.00;42.50;;;;;17.78;77.84;101878.09;146607;700;46020;-70
2021/11/07 06:52:47;;;;;;;;;57.75;44.50;;;;;17.77;77.91;101882.44;146607;564;46012;-72
2021/11/07 06:55:21;;;;;;;;;53.50;42.75;;;;;17.78;78.20;101875.47;146611;701;46012;-79
2021/11/07 06:57:55;;;;;;;;;57.75;44.25;;;;;17.87;78.07;101877.56;146609;722;45916;-78
2021/11/07 07:00:30;;;;;;;;;57.25;41.50;;;;;17.91;77.92;101880.41;146610;616;45021;-79
2021/11/07 07:03:04;;;;;;;;;55.75;42.75;;;;;17.98;77.98;101884.16;146609;569;45020;-75
2021/11/07 07:05:38;;;;;;;;;54.75;42.75;;;;;18.02;77.72;101885.16;146609;582;46020;-74
2021/11/07 07:08:18;;;;;;;;;59.00;44.75;;;;;18.08;77.63;101882.78;146607;577;46012;-77
2021/11/07 07:11:00;;;;;;;;;57.50;42.25;;;;;18.17;77.64;101885.75;146609;595;45030;-73
2021/11/07 07:13:39;;;;;;;;;56.25;43.00;;;;;18.32;77.79;101877.59;146606;616;45916;-75
2021/11/07 07:22:42;;;;;;;;;55.75;42.75;;;;;18.79;76.55;101850.47;146609;573;45021;-76
2021/11/07 07:28:28;;;;;;;;;53.25;42.25;;;;;19.46;74.77;101861.50;146606;575;46912;-78
2021/11/07 07:34:09;;;;;;;;;42.00;36.50;;;;;20.02;73.47;101867.72;146610;623;46010;-76
2021/11/07 07:36:43;;;;;;;;;48.00;36.75;;;;;20.26;72.67;101864.94;146604;644;46016;-86
2021/11/07 07:39:21;;;;;;;;;54.25;42.00;;;;;20.47;72.30;101860.28;146608;600;46020;-85
2021/11/07 07:41:55;;;;;;;;;51.75;40.75;;;;;20.44;71.96;101810.16;146608;571;46013;-85
2021/11/07 07:44:37;;;;;;;;;57.00;45.25;;;;;20.88;71.14;101854.44;146609;585;45020;-82
2021/11/07 07:47:11;;;;;;;;;58.50;44.50;;;;;21.07;70.90;101842.63;146607;578;45024;-80
2021/11/07 07:49:45;;;;;;;;;55.25;42.50;;;;;21.28;70.35;101835.25;146610;615;45021;-85
2021/11/07 07:52:25;;;;;;;;;58.75;44.00;;;;;21.39;69.29;101823.25;146611;617;45014;-75
2021/11/07 07:54:59;;;;;;;;;62.25;45.00;;;;;21.63;68.39;101843.16;146613;571;45012;-82
2021/11/07 07:57:33;;;;;;;;;63.25;48.25;;;;;21.67;67.55;101832.72;146606;625;46020;-85
2021/11/07 08:00:13;;;;;;;;;56.25;45.25;;;;;21.71;68.10;101835.41;146608;564;46020;-86
2021/11/07 08:02:47;;;;;;;;;57.00;43.25;;;;;21.59;68.24;101812.28;146609;668;45016;-89
2021/11/07 08:05:23;;;;;;;;;56.50;45.00;;;;;21.78;68.60;101837.37;146604;608;47021;-89
2021/11/07 08:07:56;;;;;;;;;46.25;36.50;;;;;21.89;68.28;101834.09;146608;607;46012;-90
2021/11/07 08:10:30;;;;;;;;;57.50;43.25;;;;;22.01;68.10;101828.19;146608;581;45020;-90
2021/11/07 08:13:05;;;;;;;;;52.50;42.50;;;;;22.18;67.82;101827.69;146608;627;45017;-87
2021/11/07 08:15:39;;;;;;;;;54.75;40.75;;;;;22.35;67.06;101813.97;146608;577;45020;-87
2021/11/07 08:18:13;;;;;;;;;55.75;43.25;;;;;22.47;65.81;101820.37;146606;569;46916;-79
2021/11/07 08:20:47;;;;;;;;;50.50;39.25;;;;;22.45;66.73;101811.50;146610;629;45021;-79
2021/11/07 08:23:23;;;;;;;;;56.75;42.00;;;;;22.48;67.02;101812.47;146605;563;46016;-80
2021/11/07 08:25:58;;;;;;;;;56.00;42.50;;;;;22.53;65.21;101808.16;146607;603;46020;-80
2021/11/07 08:28:33;;;;;;;;;50.25;41.00;;;;;22.52;66.21;101806.41;146607;587;46016;-80
2021/11/07 08:31:10;;;;;;;;;51.25;41.75;;;;;22.57;66.59;101806.47;146609;583;45025;-79
2021/11/07 08:33:45;;;;;;;;;53.75;41.75;;;;;22.67;66.92;101799.59;146606;648;46016;-80
2021/11/07 08:36:32;;;;;;;;;49.50;39.00;;;;;22.80;65.76;101802.53;146609;589;46012;-79
2021/11/07 08:39:17;;;;;;;;;52.25;39.00;;;;;22.94;65.64;101804.53;146606;612;45020;-79
2021/11/07 08:41:58;;;;;;;;;55.50;42.50;;;;;23.02;64.90;101808.19;146612;620;45021;-80
2021/11/07 09:02:07;;;;;;;;;50.50;40.75;;;;;23.23;64.05;101790.03;146607;563;46014;-80
2021/11/07 09:05:05;;;;;;;;;49.50;40.75;;;;;23.23;64.46;101782.09;146611;564;45012;-79
2021/11/07 09:10:27;;;;;;;;;48.00;38.25;;;;;23.44;64.88;101770.97;146611;569;45024;-79
2021/11/07 09:13:03;;;;;;;;;47.00;37.25;;;;;23.54;63.91;101771.09;146608;642;45017;-79
2021/11/07 09:15:39;;;;;;;;;54.75;42.75;;;;;23.56;63.74;101767.62;146610;584;46020;-79
2021/11/07 09:18:14;;;;;;;;;48.50;38.50;;;;;23.58;64.18;101765.84;146607;582;45020;-79
2021/11/07 09:21:07;;;;;;;;;49.25;41.50;;;;;23.69;65.15;101764.28;146610;662;45021;-78
2021/11/07 09:23:51;;;;;;;;;49.00;38.50;;;;;23.94;63.11;101762.84;146608;591;45016;-78
2021/11/07 09:26:32;;;;;;;;;45.25;38.00;;;;;24.05;62.82;101760.38;146611;623;45021;-78
2021/11/07 09:32:14;;;;;;;;;50.75;40.00;;;;;24.07;63.12;101763.00;146606;612;47012;-78
2021/11/07 09:41:06;;;;;;;;;48.50;38.75;;;;;24.42;62.81;101751.09;146607;610;46013;-76
2021/11/07 09:43:48;;;;;;;;;47.00;36.00;;;;;24.52;61.50;101746.78;146607;564;46012;-76
2021/11/07 09:46:53;;;;;;;;;44.50;34.25;;;;;24.51;61.27;101749.41;146608;565;46014;-74
2021/11/07 09:49:44;;;;;;;;;43.75;35.75;;;;;24.45;62.03;101749.34;146610;603;46013;-75
2021/11/07 09:52:25;;;;;;;;;46.25;36.75;;;;;24.45;62.39;101742.25;146608;580;46012;-75
2021/11/07 09:55:01;;;;;;;;;42.75;35.00;;;;;24.52;62.67;101730.00;146613;636;45013;-74
2021/11/07 09:57:37;;;;;;;;;48.75;37.00;;;;;24.66;62.63;101723.91;146606;570;45021;-74
2021/11/07 10:00:18;;;;;;;;;42.50;34.00;;;;;24.87;61.94;101719.69;146608;626;46012;-73
2021/11/07 10:02:52;;;;;;;;;45.00;35.75;;;;;25.00;61.50;101710.94;146605;601;45020;-73
2021/11/07 10:05:28;;;;;;;;;45.25;36.00;;;;;25.05;59.36;101708.34;146609;566;46020;-74
2021/11/07 10:08:06;;;;;;;;;45.25;34.00;;;;;24.96;59.28;101687.03;146608;650;45016;-75
2021/11/07 10:10:47;;;;;;;;;41.50;34.25;;;;;24.79;59.67;101695.72;146607;571;46011;-75
2021/11/07 10:13:26;;;;;;;;;50.00;39.75;;;;;22.69;61.16;101364.31;146606;563;46016;-75
2021/11/07 10:16:13;;;;;;;;;57.75;43.00;;;;;24.20;60.99;101682.78;146608;587;46010;-76
2021/11/07 10:19:05;;;;;;;;;54.00;43.25;;;;;23.97;62.24;101691.37;146608;611;45017;-76
2021/11/07 10:21:50;;;;;;;;;49.75;41.00;;;;;23.78;63.77;101667.31;146610;635;46012;-76
2021/11/07 10:24:36;;;;;;;;;47.00;38.75;;;;;23.81;63.00;101673.53;146607;566;46016;-75
2021/11/07 10:27:17;;;;;;;;;51.00;40.25;;;;;23.77;63.19;101661.13;146608;627;46010;-77
2021/11/07 10:29:53;;;;;;;;;47.50;38.00;;;;;23.79;62.69;101666.44;146606;612;46016;-73
2021/11/07 10:32:34;;;;;;;;;47.00;36.00;;;;;23.72;62.96;101645.19;146610;669;46012;-76
2021/11/07 10:45:08;;;;;;;;;49.75;39.00;;;;;24.05;62.14;101637.56;146608;641;46010;-77
2021/11/07 10:53:35;;;;;;;;;38.50;31.25;;;;;24.70;59.43;101626.69;146606;601;46012;-74
2021/11/07 10:56:13;;;;;;;;;44.75;36.50;;;;;24.81;59.33;101630.34;146608;570;45021;-74
2021/11/07 10:58:50;;;;;;;;;44.50;35.50;;;;;24.87;60.52;101625.06;146604;566;46917;-74
2021/11/07 11:01:28;;;;;;;;;36.75;32.25;;;;;25.02;58.78;101621.62;146609;573;45020;-75
2021/11/07 11:04:04;;;;;;;;;37.75;29.25;;;;;25.16;56.72;101620.84;146609;673;45032;-77
2021/11/07 11:06:39;;;;;;;;;31.75;29.25;;;;;25.20;58.75;101618.19;146611;563;46012;-75
2021/11/07 11:09:20;;;;;;;;;40.25;33.00;;;;;25.24;58.87;101614.72;146608;564;46013;-74
2021/11/07 11:11:56;;;;;;;;;38.25;32.50;;;;;25.26;57.19;101601.44;146610;608;46010;-75
2021/11/07 11:14:37;;;;;;;;;35.00;32.00;;;;;25.34;58.05;101616.50;146609;593;45917;-76
2021/11/07 11:17:32;;;;;;;;;33.00;29.25;;;;;25.28;56.05;101603.22;146609;625;46010;-75
2021/11/07 11:20:24;;;;;;;;;34.00;29.25;;;;;25.16;57.41;101602.28;146606;563;45016;-75
2021/11/07 11:23:18;;;;;;;;;33.75;29.75;;;;;25.05;57.67;101595.13;146608;631;46010;-74
2021/11/07 11:25:58;;;;;;;;;34.00;30.00;;;;;25.10;57.22;101596.00;146607;572;46017;-75
2021/11/07 11:28:40;;;;;;;;;32.25;29.75;;;;;25.08;55.63;101594.25;146610;665;45020;-75
2021/11/07 11:31:26;;;;;;;;;33.00;30.25;;;;;24.93;57.04;101581.78;146606;573;46013;-75
2021/11/07 11:34:01;;;;;;;;;35.25;30.50;;;;;24.77;58.80;101583.44;146610;564;45034;-75
2021/11/07 11:36:44;;;;;;;;;35.75;31.50;;;;;24.70;59.25;101578.97;146610;613;45030;-76
2021/11/07 11:39:24;;;;;;;;;34.50;30.50;;;;;24.14;58.82;101471.66;146609;704;45021;-73
2021/11/07 11:42:06;;;;;;;;;36.50;31.50;;;;;24.76;59.93;101565.75;146605;569;46016;-74
2021/11/07 11:44:40;;;;;;;;;32.00;28.25;;;;;24.76;57.97;101560.44;146609;587;46020;-74
2021/11/07 11:51:18;;;;;;;;;35.25;31.00;;;;;24.78;58.80;101555.16;146609;573;46010;-74
2021/11/07 12:01:07;;;;;;;;;35.00;30.50;;;;;25.01;59.25;101539.34;146607;570;46012;-75
2021/11/07 12:04:04;;;;;;;;;32.00;26.00;;;;;25.00;53.55;101540.25;146608;579;46010;-77
2021/11/07 12:06:52;;;;;;;;;29.50;27.00;;;;;24.93;58.07;101534.03;146604;576;47917;-75
2021/11/07 12:09:44;;;;;;;;;34.25;29.00;;;;;24.74;55.96;101530.38;146607;584;45908;-76
2021/11/07 12:12:26;;;;;;;;;29.25;28.50;;;;;24.52;56.49;101524.06;146607;678;46012;-73
2021/11/07 12:15:26;;;;;;;;;33.50;29.00;;;;;24.35;60.48;101508.00;146610;616;45020;-76
2021/11/07 12:18:11;;;;;;;;;35.00;29.75;;;;;24.46;60.20;101512.53;146606;577;46017;-75
2021/11/07 12:20:45;;;;;;;;;32.75;29.00;;;;;24.50;57.67;101515.22;146609;609;46010;-75
2021/11/07 12:23:34;;;;;;;;;32.75;29.50;;;;;24.57;60.71;101510.81;146607;680;45918;-75
2021/11/07 12:26:30;;;;;;;;;30.75;27.50;;;;;24.64;60.96;101509.97;146608;566;46010;-75
2021/11/07 12:29:05;;;;;;;;;33.75;28.00;;;;;24.67;56.46;101502.03;146607;593;45016;-75
2021/11/07 12:31:39;;;;;;;;;33.00;29.25;;;;;24.60;57.68;101500.25;146610;621;45021;-75
2021/11/07 12:34:19;;;;;;;;;33.75;30.00;;;;;24.50;57.60;101494.00;146605;569;45020;-75
2021/11/07 12:42:40;;;;;;;;;38.75;33.25;;;;;24.43;58.22;101490.44;146609;576;46010;-75
2021/11/07 12:45:50;;;;;;;;;34.75;30.50;;;;;23.53;61.48;101317.56;146606;620;46020;-76
2021/11/07 12:48:48;;;;;;;;;29.00;26.75;;;;;24.59;59.01;101493.16;146606;686;46010;-75
2021/11/07 12:51:34;;;;;;;;;34.00;31.25;;;;;24.69;59.79;101495.00;146607;598;46016;-75
2021/11/07 12:54:18;;;;;;;;;34.25;30.00;;;;;24.76;61.12;101486.19;146609;613;46021;-75
2021/11/07 12:57:24;;;;;;;;;34.00;30.75;;;;;24.86;59.76;101488.00;146608;569;46012;-75
2021/11/07 13:00:05;;;;;;;;;32.00;29.75;;;;;24.90;59.93;101486.25;146606;565;46909;-76
2021/11/07 13:02:39;;;;;;;;;39.75;33.25;;;;;24.94;59.65;101476.53;146607;629;46012;-76
2021/11/07 13:05:30;;;;;;;;;40.00;33.00;;;;;24.91;56.70;101474.75;146609;588;45020;-75
2021/11/07 13:08:06;;;;;;;;;42.00;32.50;;;;;24.74;56.92;101476.47;146607;641;46017;-75
2021/11/07 13:11:12;;;;;;;;;41.50;31.75;;;;;24.54;58.09;101485.19;146612;723;45025;-76
2021/11/07 13:14:00;;;;;;;;;44.25;33.75;;;;;24.47;60.17;101472.78;146607;583;45024;-75
2021/11/07 13:16:55;;;;;;;;;47.25;38.25;;;;;24.52;59.52;101486.06;146610;589;45031;-75
2021/11/07 13:23:04;;;;;;;;;36.50;31.25;;;;;24.45;59.10;101485.13;146611;571;45020;-75
2021/11/07 13:26:00;;;;;;;;;44.00;34.75;;;;;24.35;59.84;101484.13;146607;583;46012;-75
2021/11/07 13:28:43;;;;;;;;;37.75;29.50;;;;;24.26;60.11;101470.81;146608;582;46020;-75
2021/11/07 13:31:22;;;;;;;;;40.00;32.50;;;;;24.28;61.68;101471.72;146606;593;45021;-75
2021/11/07 13:34:08;;;;;;;;;34.50;30.50;;;;;24.38;62.20;101473.56;146611;601;45020;-76
2021/11/07 13:36:46;;;;;;;;;36.50;32.00;;;;;24.51;61.75;101471.91;146607;585;45033;-76
2021/11/07 13:39:34;;;;;;;;;36.75;31.00;;;;;24.58;62.16;101471.09;146609;660;45021;-75
2021/11/07 13:42:15;;;;;;;;;36.00;31.25;;;;;24.65;61.61;101479.94;146605;653;45020;-75